Time,TemperatureF,DewpointF,PressureIn,WindDirection,WindDirectionDegrees,WindSpeedMPH,WindSpeedGustMPH,Humidity,HourlyPrecipIn,Conditions,Clouds,dailyrainin,SoftwareType,DateUTC
2013-02-07 00:01:00,43.0,36.3,29.75,East,90,0.4,8.5,77,0.00,,,0.00,WUHU216HW,2013-02-07 08:01:00,
2013-02-07 00:06:00,43.1,36.4,29.75,ENE,68,3.8,6.7,77,0.00,,,0.00,WUHU216HW,2013-02-07 08:06:00,
2013-02-07 00:11:00,43.1,36.4,29.75,North,0,1.1,7.4,77,0.00,,,0.00,WUHU216HW,2013-02-07 08:11:00,
2013-02-07 00:16:00,43.3,36.6,29.75,East,90,4.0,7.4,77,0.00,,,0.00,WUHU216HW,2013-02-07 08:16:00,
2013-02-07 00:21:00,43.1,36.7,29.75,East,90,5.4,5.8,78,0.01,,,0.01,WUHU216HW,2013-02-07 08:21:00,
2013-02-07 00:26:00,43.0,37.0,29.75,ESE,113,2.0,5.8,79,0.01,,,0.01,WUHU216HW,2013-02-07 08:26:00,
2013-02-07 00:31:00,42.8,37.1,29.75,East,90,1.1,5.4,80,0.01,,,0.01,WUHU216HW,2013-02-07 08:31:00,
2013-02-07 00:36:00,42.8,37.1,29.75,East,90,6.0,6.5,80,0.01,,,0.01,WUHU216HW,2013-02-07 08:36:00,
2013-02-07 00:41:00,42.8,37.1,29.75,SE,135,4.3,6.5,80,0.01,,,0.01,WUHU216HW,2013-02-07 08:41:00,
2013-02-07 00:47:00,42.6,37.2,29.75,SSW,203,1.8,6.0,81,0.02,,,0.02,WUHU216HW,2013-02-07 08:47:00,
2013-02-07 00:51:00,42.6,37.2,29.75,SE,135,1.1,4.3,81,0.02,,,0.02,WUHU216HW,2013-02-07 08:51:00,
2013-02-07 00:57:00,42.4,37.0,29.75,NE,45,2.5,3.8,81,0.02,,,0.02,WUHU216HW,2013-02-07 08:57:00,
2013-02-07 01:02:00,42.4,37.0,29.75,ENE,68,2.5,4.3,81,0.02,,,0.02,WUHU216HW,2013-02-07 09:02:00,
2013-02-07 01:07:00,42.4,37.3,29.75,ENE,68,2.2,4.3,82,0.02,,,0.02,WUHU216HW,2013-02-07 09:07:00,
2013-02-07 01:12:00,42.4,37.3,29.75,ESE,113,1.8,2.5,82,0.02,,,0.02,WUHU216HW,2013-02-07 09:12:00,
2013-02-07 01:17:00,42.2,37.1,29.75,NNE,23,1.1,2.7,82,0.01,,,0.02,WUHU216HW,2013-02-07 09:17:00,
2013-02-07 01:22:00,42.2,37.1,29.75,North,0,1.1,2.7,82,0.01,,,0.02,WUHU216HW,2013-02-07 09:22:00,
2013-02-07 01:27:00,42.1,37.3,29.74,SE,135,0.0,2.2,83,0.01,,,0.02,WUHU216HW,2013-02-07 09:27:00,
2013-02-07 01:32:00,42.1,37.3,29.74,ENE,68,0.0,1.6,83,0.01,,,0.02,WUHU216HW,2013-02-07 09:32:00,
2013-02-07 01:37:00,42.1,37.3,29.74,East,90,1.6,1.8,83,0.02,,,0.03,WUHU216HW,2013-02-07 09:37:00,
2013-02-07 01:42:00,42.1,37.6,29.74,ESE,113,1.8,2.7,84,0.03,,,0.04,WUHU216HW,2013-02-07 09:42:00,
2013-02-07 01:47:00,41.9,37.4,29.74,SE,135,0.2,2.7,84,0.02,,,0.04,WUHU216HW,2013-02-07 09:47:00,
2013-02-07 01:52:00,41.9,37.4,29.75,SSE,158,1.3,2.5,84,0.02,,,0.04,WUHU216HW,2013-02-07 09:52:00,
2013-02-07 01:57:00,41.9,37.7,29.76,SW,225,3.6,5.1,85,0.03,,,0.05,WUHU216HW,2013-02-07 09:57:00,
2013-02-07 02:02:00,41.9,37.7,29.77,NNW,338,0.7,5.1,85,0.04,,,0.06,WUHU216HW,2013-02-07 10:02:00,
2013-02-07 02:07:00,41.9,37.7,29.78,SW,225,4.7,7.8,85,0.06,,,0.08,WUHU216HW,2013-02-07 10:07:00,
2013-02-07 02:12:00,41.7,37.5,29.80,WSW,248,5.4,17.9,85,0.07,,,0.09,WUHU216HW,2013-02-07 10:12:00,
2013-02-07 02:17:00,41.3,37.1,29.80,SW,225,2.7,17.9,85,0.10,,,0.12,WUHU216HW,2013-02-07 10:17:00,
2013-02-07 02:22:00,41.0,37.1,29.81,SW,225,15.0,15.0,86,0.12,,,0.14,WUHU216HW,2013-02-07 10:22:00,
2013-02-07 02:27:00,40.6,36.7,29.81,SW,225,8.3,15.0,86,0.14,,,0.15,WUHU216HW,2013-02-07 10:27:00,
2013-02-07 02:32:00,40.4,36.5,29.82,SW,225,6.9,15.0,86,0.15,,,0.17,WUHU216HW,2013-02-07 10:32:00,
2013-02-07 02:37:00,40.1,36.2,29.81,SW,225,4.9,11.4,86,0.15,,,0.18,WUHU216HW,2013-02-07 10:37:00,
2013-02-07 02:42:00,39.9,36.0,29.82,South,180,5.4,11.2,86,0.15,,,0.19,WUHU216HW,2013-02-07 10:42:00,
2013-02-07 02:47:00,39.9,36.3,29.81,SE,135,3.8,11.2,87,0.16,,,0.20,WUHU216HW,2013-02-07 10:47:00,
2013-02-07 02:52:00,39.9,36.3,29.82,SE,135,1.6,6.9,87,0.17,,,0.21,WUHU216HW,2013-02-07 10:52:00,
2013-02-07 02:57:00,40.1,36.5,29.81,SE,135,2.7,7.4,87,0.16,,,0.21,WUHU216HW,2013-02-07 10:57:00,
2013-02-07 03:02:00,39.9,36.6,29.82,ENE,68,4.0,7.4,88,0.16,,,0.22,WUHU216HW,2013-02-07 11:02:00,
2013-02-07 03:07:00,39.9,36.6,29.82,ENE,68,6.0,7.6,88,0.15,,,0.23,WUHU216HW,2013-02-07 11:07:00,
2013-02-07 03:12:00,39.7,36.7,29.82,East,90,5.6,7.6,89,0.11,,,0.23,WUHU216HW,2013-02-07 11:12:00,
2013-02-07 03:17:00,39.7,36.7,29.82,SE,135,4.0,6.9,89,0.09,,,0.23,WUHU216HW,2013-02-07 11:17:00,
2013-02-07 03:22:00,39.5,36.5,29.82,SE,135,2.5,6.3,89,0.09,,,0.23,WUHU216HW,2013-02-07 11:22:00,
2013-02-07 03:27:00,39.5,36.5,29.83,SE,135,2.7,6.3,89,0.07,,,0.23,WUHU216HW,2013-02-07 11:27:00,
2013-02-07 03:32:00,39.4,36.4,29.83,ENE,68,4.5,5.6,89,0.05,,,0.23,WUHU216HW,2013-02-07 11:32:00,
2013-02-07 03:37:00,39.4,36.4,29.83,North,0,4.9,6.3,89,0.05,,,0.23,WUHU216HW,2013-02-07 11:37:00,
2013-02-07 03:42:00,39.4,36.4,29.83,NE,45,3.6,6.3,89,0.04,,,0.23,WUHU216HW,2013-02-07 11:42:00,
2013-02-07 03:47:00,39.2,36.2,29.83,East,90,4.7,6.7,89,0.03,,,0.23,WUHU216HW,2013-02-07 11:47:00,
2013-02-07 03:52:00,39.2,36.2,29.83,East,90,3.1,9.2,89,0.02,,,0.23,WUHU216HW,2013-02-07 11:52:00,
2013-02-07 03:57:00,39.2,36.2,29.83,East,90,2.2,9.2,89,0.01,,,0.23,WUHU216HW,2013-02-07 11:57:00,
2013-02-07 04:02:00,39.2,36.2,29.84,North,0,3.6,5.4,89,0.01,,,0.23,WUHU216HW,2013-02-07 12:02:00,
2013-02-07 04:08:00,39.2,36.2,29.84,ESE,113,1.8,6.0,89,0.00,,,0.23,WUHU216HW,2013-02-07 12:08:00,
2013-02-07 04:13:00,39.2,36.2,29.84,ESE,113,1.1,6.0,89,0.00,,,0.23,WUHU216HW,2013-02-07 12:13:00,
2013-02-07 04:18:00,39.4,36.4,29.84,ESE,113,2.5,6.0,89,0.00,,,0.23,WUHU216HW,2013-02-07 12:18:00,
2013-02-07 04:23:00,39.4,36.4,29.84,East,90,3.8,3.8,89,0.00,,,0.23,WUHU216HW,2013-02-07 12:23:00,
2013-02-07 04:28:00,39.4,36.1,29.85,SSE,158,3.1,5.1,88,0.00,,,0.23,WUHU216HW,2013-02-07 12:28:00,
2013-02-07 04:33:00,39.4,36.1,29.85,East,90,5.4,6.3,88,0.00,,,0.23,WUHU216HW,2013-02-07 12:33:00,
2013-02-07 04:38:00,39.4,36.1,29.85,ESE,113,3.6,6.3,88,0.00,,,0.23,WUHU216HW,2013-02-07 12:38:00,
2013-02-07 04:43:00,39.4,35.8,29.85,SE,135,2.5,5.4,87,0.00,,,0.23,WUHU216HW,2013-02-07 12:43:00,
2013-02-07 04:48:00,39.4,35.8,29.85,SE,135,2.9,4.7,87,0.00,,,0.23,WUHU216HW,2013-02-07 12:48:00,
2013-02-07 04:53:00,39.4,35.8,29.85,ESE,113,4.0,4.7,87,0.00,,,0.23,WUHU216HW,2013-02-07 12:53:00,
2013-02-07 04:58:00,39.4,35.8,29.85,ESE,113,4.9,7.6,87,0.00,,,0.23,WUHU216HW,2013-02-07 12:58:00,
2013-02-07 05:03:00,39.4,35.8,29.86,ENE,68,2.2,7.6,87,0.00,,,0.23,WUHU216HW,2013-02-07 13:03:00,
2013-02-07 05:08:00,39.4,35.8,29.86,NE,45,4.7,6.3,87,0.00,,,0.23,WUHU216HW,2013-02-07 13:08:00,
2013-02-07 05:13:00,39.4,35.8,29.86,SE,135,1.6,6.3,87,0.00,,,0.23,WUHU216HW,2013-02-07 13:13:00,
2013-02-07 05:18:00,39.4,35.8,29.86,South,180,0.4,6.3,87,0.00,,,0.23,WUHU216HW,2013-02-07 13:18:00,
2013-02-07 05:23:00,39.4,35.8,29.86,SE,135,4.5,6.3,87,0.00,,,0.23,WUHU216HW,2013-02-07 13:23:00,
2013-02-07 05:28:00,39.4,35.8,29.86,South,180,3.4,5.4,87,0.00,,,0.23,WUHU216HW,2013-02-07 13:28:00,
2013-02-07 05:33:00,39.4,35.8,29.87,SE,135,2.5,4.5,87,0.00,,,0.23,WUHU216HW,2013-02-07 13:33:00,
2013-02-07 05:38:00,39.4,35.8,29.87,SE,135,2.5,5.8,87,0.00,,,0.23,WUHU216HW,2013-02-07 13:38:00,
2013-02-07 05:43:00,39.4,35.8,29.87,SE,135,1.8,5.8,87,0.00,,,0.23,WUHU216HW,2013-02-07 13:43:00,
2013-02-07 05:48:00,39.4,35.8,29.87,East,90,1.8,5.8,87,0.00,,,0.23,WUHU216HW,2013-02-07 13:48:00,
2013-02-07 05:53:00,39.2,35.6,29.88,ENE,68,4.0,5.8,87,0.00,,,0.23,WUHU216HW,2013-02-07 13:53:00,
2013-02-07 05:58:00,39.2,35.3,29.88,NE,45,1.3,6.7,86,0.00,,,0.23,WUHU216HW,2013-02-07 13:58:00,
2013-02-07 06:03:00,39.4,35.8,29.88,East,90,1.8,6.7,87,0.00,,,0.23,WUHU216HW,2013-02-07 14:03:00,
2013-02-07 06:08:00,39.2,35.6,29.88,ESE,113,1.3,3.4,87,0.00,,,0.23,WUHU216HW,2013-02-07 14:08:00,
2013-02-07 06:13:00,39.2,35.6,29.88,East,90,4.0,4.3,87,0.00,,,0.23,WUHU216HW,2013-02-07 14:13:00,
2013-02-07 06:18:00,39.2,35.6,29.88,ESE,113,3.6,4.3,87,0.00,,,0.23,WUHU216HW,2013-02-07 14:18:00,
2013-02-07 06:23:00,39.2,35.6,29.88,South,180,1.1,4.7,87,0.00,,,0.23,WUHU216HW,2013-02-07 14:23:00,
2013-02-07 06:28:00,39.4,35.8,29.88,SSE,158,3.4,6.9,87,0.00,,,0.23,WUHU216HW,2013-02-07 14:28:00,
2013-02-07 06:33:00,39.4,35.8,29.88,SSE,158,1.8,6.9,87,0.00,,,0.23,WUHU216HW,2013-02-07 14:33:00,
2013-02-07 06:38:00,39.5,35.6,29.88,ENE,68,1.1,5.6,86,0.00,,,0.23,WUHU216HW,2013-02-07 14:38:00,
2013-02-07 06:43:00,39.5,35.9,29.88,SSE,158,2.7,5.6,87,0.00,,,0.23,WUHU216HW,2013-02-07 14:43:00,
2013-02-07 06:48:00,39.7,36.1,29.89,SE,135,3.1,4.0,87,0.00,,,0.23,WUHU216HW,2013-02-07 14:48:00,
2013-02-07 06:53:00,39.7,36.1,29.89,ESE,113,0.9,4.0,87,0.00,,,0.23,WUHU216HW,2013-02-07 14:53:00,
2013-02-07 06:58:00,39.7,35.8,29.89,SSE,158,4.5,6.3,86,0.00,,,0.23,WUHU216HW,2013-02-07 14:58:00,
2013-02-07 07:03:00,39.7,35.8,29.89,SE,135,2.2,6.3,86,0.00,,,0.23,WUHU216HW,2013-02-07 15:03:00,
2013-02-07 07:08:00,39.7,35.8,29.90,ESE,113,4.7,4.7,86,0.00,,,0.23,WUHU216HW,2013-02-07 15:08:00,
2013-02-07 07:13:00,39.9,35.7,29.89,ESE,113,3.6,5.4,85,0.00,,,0.23,WUHU216HW,2013-02-07 15:13:00,
2013-02-07 07:18:00,39.7,35.5,29.89,East,90,2.9,5.4,85,0.00,,,0.23,WUHU216HW,2013-02-07 15:18:00,
2013-02-07 07:23:00,39.5,35.3,29.89,ESE,113,4.9,5.8,85,0.00,,,0.23,WUHU216HW,2013-02-07 15:23:00,
2013-02-07 07:28:00,39.5,35.3,29.90,ESE,113,4.5,5.8,85,0.00,,,0.23,WUHU216HW,2013-02-07 15:28:00,
2013-02-07 07:33:00,39.5,35.1,29.90,NNE,23,0.7,5.6,84,0.00,,,0.23,WUHU216HW,2013-02-07 15:33:00,
2013-02-07 07:38:00,39.4,35.2,29.90,ENE,68,5.6,5.6,85,0.00,,,0.23,WUHU216HW,2013-02-07 15:38:00,
2013-02-07 07:43:00,39.4,35.2,29.90,ESE,113,3.4,5.6,85,0.00,,,0.23,WUHU216HW,2013-02-07 15:43:00,
2013-02-07 07:48:00,39.4,35.0,29.90,ESE,113,0.9,5.6,84,0.00,,,0.23,WUHU216HW,2013-02-07 15:48:00,
2013-02-07 07:53:00,39.4,35.2,29.91,ENE,68,1.1,4.7,85,0.00,,,0.23,WUHU216HW,2013-02-07 15:53:00,
2013-02-07 07:58:00,39.4,35.2,29.91,NE,45,4.0,4.0,85,0.00,,,0.23,WUHU216HW,2013-02-07 15:58:00,
2013-02-07 08:03:00,39.5,35.3,29.92,East,90,1.1,4.0,85,0.00,,,0.23,WUHU216HW,2013-02-07 16:03:00,
2013-02-07 08:08:00,39.5,35.3,29.92,North,0,0.7,4.0,85,0.00,,,0.23,WUHU216HW,2013-02-07 16:08:00,
2013-02-07 08:13:00,39.5,35.6,29.92,East,90,1.6,2.2,86,0.00,,,0.23,WUHU216HW,2013-02-07 16:13:00,
2013-02-07 08:18:00,39.5,35.6,29.92,ENE,68,1.8,3.4,86,0.00,,,0.23,WUHU216HW,2013-02-07 16:18:00,
2013-02-07 08:23:00,39.7,35.8,29.92,SE,135,1.3,3.4,86,0.00,,,0.23,WUHU216HW,2013-02-07 16:23:00,
2013-02-07 08:28:00,39.7,36.1,29.93,SE,135,3.8,3.8,87,0.00,,,0.23,WUHU216HW,2013-02-07 16:28:00,
2013-02-07 08:33:00,39.7,35.8,29.93,SE,135,3.1,3.8,86,0.00,,,0.23,WUHU216HW,2013-02-07 16:33:00,
2013-02-07 08:38:00,39.7,35.8,29.93,SE,135,0.9,4.7,86,0.00,,,0.23,WUHU216HW,2013-02-07 16:38:00,
2013-02-07 08:43:00,39.9,35.7,29.93,SW,225,0.4,4.7,85,0.00,,,0.23,WUHU216HW,2013-02-07 16:43:00,
2013-02-07 08:48:00,39.9,35.7,29.93,SE,135,0.4,4.0,85,0.00,,,0.23,WUHU216HW,2013-02-07 16:48:00,
2013-02-07 08:54:00,39.9,35.7,29.94,East,90,2.5,2.5,85,0.00,,,0.23,WUHU216HW,2013-02-07 16:54:00,
2013-02-07 08:58:00,40.1,35.9,29.94,ENE,68,2.9,3.4,85,0.00,,,0.23,WUHU216HW,2013-02-07 16:58:00,
2013-02-07 09:03:00,40.3,36.1,29.94,ESE,113,2.5,3.6,85,0.00,,,0.23,WUHU216HW,2013-02-07 17:03:00,
2013-02-07 09:08:00,40.3,36.4,29.94,SE,135,2.5,4.7,86,0.00,,,0.23,WUHU216HW,2013-02-07 17:08:00,
2013-02-07 09:13:00,40.3,36.1,29.94,ENE,68,0.7,4.7,85,0.00,,,0.23,WUHU216HW,2013-02-07 17:13:00,
2013-02-07 09:18:00,40.4,36.5,29.94,ESE,113,1.3,3.4,86,0.00,,,0.23,WUHU216HW,2013-02-07 17:18:00,
2013-02-07 09:23:00,40.4,36.2,29.94,ESE,113,1.3,3.4,85,0.00,,,0.23,WUHU216HW,2013-02-07 17:23:00,
2013-02-07 09:28:00,40.3,36.1,29.94,ENE,68,1.1,2.2,85,0.00,,,0.23,WUHU216HW,2013-02-07 17:28:00,
2013-02-07 09:33:00,40.3,36.1,29.94,ENE,68,0.2,2.5,85,0.00,,,0.23,WUHU216HW,2013-02-07 17:33:00,
2013-02-07 09:38:00,40.3,36.1,29.95,SSE,158,2.5,3.6,85,0.00,,,0.23,WUHU216HW,2013-02-07 17:38:00,
2013-02-07 09:43:00,40.3,36.1,29.95,SSE,158,0.9,4.7,85,0.00,,,0.23,WUHU216HW,2013-02-07 17:43:00,
2013-02-07 09:49:00,40.4,36.2,29.95,ENE,68,1.6,4.7,85,0.00,,,0.23,WUHU216HW,2013-02-07 17:49:00,
2013-02-07 09:54:00,40.4,36.2,29.95,SSW,203,3.6,4.9,85,0.00,,,0.23,WUHU216HW,2013-02-07 17:54:00,
2013-02-07 09:59:00,40.4,36.2,29.95,South,180,1.8,4.9,85,0.00,,,0.23,WUHU216HW,2013-02-07 17:59:00,
2013-02-07 10:04:00,40.4,36.2,29.95,SE,135,0.4,3.6,85,0.00,,,0.23,WUHU216HW,2013-02-07 18:04:00,
2013-02-07 10:09:00,40.6,36.4,29.95,SE,135,1.3,3.4,85,0.00,,,0.23,WUHU216HW,2013-02-07 18:09:00,
2013-02-07 10:14:00,40.6,36.4,29.95,SW,225,2.2,2.9,85,0.00,,,0.23,WUHU216HW,2013-02-07 18:14:00,
2013-02-07 10:19:00,40.6,36.4,29.96,WSW,248,4.3,6.9,85,0.00,,,0.23,WUHU216HW,2013-02-07 18:19:00,
2013-02-07 10:24:00,41.0,36.8,29.96,South,180,3.4,6.9,85,0.00,,,0.23,WUHU216HW,2013-02-07 18:24:00,
2013-02-07 10:29:00,41.0,36.5,29.96,South,180,1.1,6.3,84,0.00,,,0.23,WUHU216HW,2013-02-07 18:29:00,
2013-02-07 10:34:00,41.0,36.5,29.96,SW,225,3.1,6.0,84,0.00,,,0.23,WUHU216HW,2013-02-07 18:34:00,
2013-02-07 10:39:00,41.2,36.7,29.96,ENE,68,1.8,4.5,84,0.00,,,0.23,WUHU216HW,2013-02-07 18:39:00,
2013-02-07 10:44:00,41.3,36.8,29.96,SE,135,4.5,4.5,84,0.00,,,0.23,WUHU216HW,2013-02-07 18:44:00,
2013-02-07 10:49:00,41.5,36.4,29.96,SE,135,2.2,7.6,82,0.00,,,0.23,WUHU216HW,2013-02-07 18:49:00,
2013-02-07 10:54:00,41.5,36.4,29.96,SSE,158,3.4,7.6,82,0.00,,,0.23,WUHU216HW,2013-02-07 18:54:00,
2013-02-07 10:55:00,41.7,36.9,29.96,ESE,113,3.8,7.6,83,0.00,,,0.23,WUHU216HW,2013-02-07 18:55:00,
2013-02-07 10:56:00,41.7,36.9,29.96,WSW,248,3.8,7.6,83,0.00,,,0.23,WUHU216HW,2013-02-07 18:56:00,
2013-02-07 10:57:00,41.5,36.7,29.96,South,180,4.7,6.3,83,0.00,,,0.23,WUHU216HW,2013-02-07 18:57:00,
2013-02-07 10:58:00,41.5,36.7,29.96,SW,225,4.5,6.3,83,0.00,,,0.23,WUHU216HW,2013-02-07 18:58:00,
2013-02-07 10:59:00,41.5,36.7,29.96,SW,225,4.7,6.3,83,0.00,,,0.23,WUHU216HW,2013-02-07 18:59:00,
2013-02-07 11:00:00,41.5,36.4,29.96,SSW,203,3.4,6.3,82,0.00,,,0.23,WUHU216HW,2013-02-07 19:00:00,
2013-02-07 11:01:00,41.5,36.7,29.96,SW,225,1.1,6.3,83,0.00,,,0.23,WUHU216HW,2013-02-07 19:01:00,
2013-02-07 11:02:00,41.5,36.7,29.96,SW,225,4.7,6.3,83,0.00,,,0.23,WUHU216HW,2013-02-07 19:02:00,
2013-02-07 11:03:00,41.5,36.4,29.96,SW,225,1.3,6.3,82,0.00,,,0.23,WUHU216HW,2013-02-07 19:03:00,
2013-02-07 11:04:00,41.3,36.2,29.96,SW,225,2.7,6.3,82,0.00,,,0.23,WUHU216HW,2013-02-07 19:04:00,
2013-02-07 11:05:00,41.5,36.4,29.96,SW,225,2.7,6.0,82,0.00,,,0.23,WUHU216HW,2013-02-07 19:05:00,
2013-02-07 11:06:00,41.5,36.4,29.96,SW,225,4.5,6.0,82,0.00,,,0.23,WUHU216HW,2013-02-07 19:06:00,
2013-02-07 11:07:00,41.5,36.4,29.96,SW,225,2.7,6.9,82,0.00,,,0.23,WUHU216HW,2013-02-07 19:07:00,
2013-02-07 11:08:00,41.5,36.4,29.97,SSW,203,2.5,6.9,82,0.00,,,0.23,WUHU216HW,2013-02-07 19:08:00,
2013-02-07 11:09:00,41.3,36.2,29.97,ESE,113,1.3,6.9,82,0.00,,,0.23,WUHU216HW,2013-02-07 19:09:00,
2013-02-07 11:10:00,41.5,36.4,29.96,ENE,68,3.8,6.9,82,0.00,,,0.23,WUHU216HW,2013-02-07 19:10:00,
2013-02-07 11:11:00,41.3,36.2,29.96,East,90,3.8,6.9,82,0.00,,,0.23,WUHU216HW,2013-02-07 19:11:00,
2013-02-07 11:12:00,41.5,36.1,29.96,SE,135,2.5,6.9,81,0.00,,,0.23,WUHU216HW,2013-02-07 19:12:00,
2013-02-07 11:13:00,41.5,36.1,29.96,ESE,113,2.0,6.9,81,0.00,,,0.23,WUHU216HW,2013-02-07 19:13:00,
2013-02-07 11:14:00,41.5,36.4,29.96,SW,225,2.5,6.9,82,0.00,,,0.23,WUHU216HW,2013-02-07 19:14:00,
2013-02-07 11:15:00,41.5,36.4,29.96,South,180,2.7,6.9,82,0.00,,,0.23,WUHU216HW,2013-02-07 19:15:00,
2013-02-07 11:16:00,41.5,36.4,29.96,South,180,2.7,6.9,82,0.00,,,0.23,WUHU216HW,2013-02-07 19:16:00,
2013-02-07 11:17:00,41.5,36.4,29.96,SW,225,1.3,4.7,82,0.00,,,0.23,WUHU216HW,2013-02-07 19:17:00,
2013-02-07 11:18:00,41.5,36.4,29.96,SW,225,3.4,5.1,82,0.00,,,0.23,WUHU216HW,2013-02-07 19:18:00,
2013-02-07 11:19:00,41.5,36.1,29.96,SW,225,3.1,5.1,81,0.00,,,0.23,WUHU216HW,2013-02-07 19:19:00,
2013-02-07 11:20:00,41.5,36.1,29.96,SW,225,3.8,5.1,81,0.00,,,0.23,WUHU216HW,2013-02-07 19:20:00,
2013-02-07 11:21:00,41.5,36.1,29.96,SW,225,2.5,5.1,81,0.00,,,0.23,WUHU216HW,2013-02-07 19:21:00,
2013-02-07 11:22:00,41.5,36.1,29.96,WSW,248,1.8,5.1,81,0.00,,,0.23,WUHU216HW,2013-02-07 19:22:00,
2013-02-07 11:23:00,41.5,36.1,29.96,SSW,203,1.3,5.1,81,0.00,,,0.23,WUHU216HW,2013-02-07 19:23:00,
2013-02-07 11:24:00,41.5,36.1,29.96,SW,225,1.6,5.1,81,0.00,,,0.23,WUHU216HW,2013-02-07 19:24:00,
2013-02-07 11:25:00,41.5,36.1,29.96,SSW,203,2.5,5.1,81,0.00,,,0.23,WUHU216HW,2013-02-07 19:25:00,
2013-02-07 11:26:00,41.5,36.1,29.96,South,180,3.4,5.1,81,0.00,,,0.23,WUHU216HW,2013-02-07 19:26:00,
2013-02-07 11:27:00,41.5,36.1,29.96,SW,225,4.0,5.1,81,0.00,,,0.23,WUHU216HW,2013-02-07 19:27:00,
2013-02-07 11:28:00,41.5,36.1,29.96,WSW,248,2.5,5.1,81,0.00,,,0.23,WUHU216HW,2013-02-07 19:28:00,
2013-02-07 11:29:00,41.5,36.1,29.96,SW,225,2.9,5.1,81,0.00,,,0.23,WUHU216HW,2013-02-07 19:29:00,
2013-02-07 11:30:00,41.5,36.1,29.96,SW,225,3.1,5.1,81,0.00,,,0.23,WUHU216HW,2013-02-07 19:30:00,
2013-02-07 11:31:00,41.5,36.1,29.96,WSW,248,3.4,5.1,81,0.00,,,0.23,WUHU216HW,2013-02-07 19:31:00,
2013-02-07 11:32:00,41.5,36.1,29.96,SW,225,3.4,5.1,81,0.00,,,0.23,WUHU216HW,2013-02-07 19:32:00,
2013-02-07 11:33:00,41.7,36.3,29.96,SSE,158,2.0,5.1,81,0.00,,,0.23,WUHU216HW,2013-02-07 19:33:00,
2013-02-07 11:34:00,41.5,36.1,29.96,NE,45,0.7,5.1,81,0.00,,,0.23,WUHU216HW,2013-02-07 19:34:00,
2013-02-07 11:35:00,41.5,36.1,29.96,SSE,158,1.8,4.0,81,0.00,,,0.23,WUHU216HW,2013-02-07 19:35:00,
2013-02-07 11:36:00,41.7,36.3,29.96,South,180,1.1,4.0,81,0.00,,,0.23,WUHU216HW,2013-02-07 19:36:00,
2013-02-07 11:37:00,41.7,36.3,29.96,South,180,1.8,3.4,81,0.00,,,0.23,WUHU216HW,2013-02-07 19:37:00,
2013-02-07 11:38:00,41.7,36.3,29.96,SSE,158,4.0,4.0,81,0.00,,,0.23,WUHU216HW,2013-02-07 19:38:00,
2013-02-07 11:39:00,41.7,36.3,29.96,South,180,4.7,4.7,81,0.00,,,0.23,WUHU216HW,2013-02-07 19:39:00,
2013-02-07 11:40:00,41.9,36.5,29.96,South,180,1.8,4.7,81,0.00,,,0.23,WUHU216HW,2013-02-07 19:40:00,
2013-02-07 11:41:00,41.9,36.5,29.96,SW,225,4.0,4.7,81,0.00,,,0.23,WUHU216HW,2013-02-07 19:41:00,
2013-02-07 11:42:00,41.9,36.5,29.96,SW,225,5.6,5.6,81,0.00,,,0.23,WUHU216HW,2013-02-07 19:42:00,
2013-02-07 11:43:00,41.9,36.5,29.96,SW,225,2.0,5.6,81,0.00,,,0.23,WUHU216HW,2013-02-07 19:43:00,
2013-02-07 11:44:00,41.9,36.5,29.97,SW,225,4.5,5.6,81,0.00,,,0.23,WUHU216HW,2013-02-07 19:44:00,
2013-02-07 11:45:00,41.9,36.5,29.96,SW,225,2.7,5.6,81,0.00,,,0.23,WUHU216HW,2013-02-07 19:45:00,
2013-02-07 11:46:00,41.9,36.5,29.96,SW,225,0.7,5.6,81,0.00,,,0.23,WUHU216HW,2013-02-07 19:46:00,
2013-02-07 11:47:00,41.9,36.5,29.96,SW,225,1.8,5.6,81,0.00,,,0.23,WUHU216HW,2013-02-07 19:47:00,
2013-02-07 11:48:00,41.9,36.5,29.96,SW,225,5.8,5.8,81,0.00,,,0.23,WUHU216HW,2013-02-07 19:48:00,
2013-02-07 11:49:00,41.9,36.2,29.96,SW,225,6.5,6.5,80,0.00,,,0.23,WUHU216HW,2013-02-07 19:49:00,
2013-02-07 11:50:00,41.9,36.2,29.96,SW,225,5.8,6.5,80,0.00,,,0.23,WUHU216HW,2013-02-07 19:50:00,
2013-02-07 11:51:00,41.9,35.9,29.96,SW,225,4.3,6.5,79,0.00,,,0.23,WUHU216HW,2013-02-07 19:51:00,
2013-02-07 11:52:00,41.9,36.2,29.96,WSW,248,1.1,6.5,80,0.00,,,0.23,WUHU216HW,2013-02-07 19:52:00,
2013-02-07 12:00:00,41.9,36.2,29.96,SW,225,2.9,6.0,80,0.00,,,0.23,WUHU216HW,2013-02-07 20:00:00,
2013-02-07 12:05:00,41.9,36.2,29.96,WSW,248,6.5,6.5,80,0.00,,,0.23,WUHU216HW,2013-02-07 20:05:00,
2013-02-07 12:10:00,41.9,35.9,29.96,SW,225,2.5,6.5,79,0.00,,,0.23,WUHU216HW,2013-02-07 20:10:00,
2013-02-07 12:15:00,41.9,36.2,29.96,South,180,1.8,6.0,80,0.00,,,0.23,WUHU216HW,2013-02-07 20:15:00,
2013-02-07 12:20:00,41.7,36.0,29.96,SW,225,3.1,3.1,80,0.00,,,0.23,WUHU216HW,2013-02-07 20:20:00,
2013-02-07 12:25:00,41.9,36.2,29.96,SSE,158,3.1,3.6,80,0.00,,,0.23,WUHU216HW,2013-02-07 20:25:00,
2013-02-07 12:30:00,41.9,36.2,29.96,South,180,2.2,3.1,80,0.00,,,0.23,WUHU216HW,2013-02-07 20:30:00,
2013-02-07 12:35:00,42.1,36.4,29.97,SSE,158,1.1,2.5,80,0.00,,,0.23,WUHU216HW,2013-02-07 20:35:00,
2013-02-07 12:40:00,42.1,36.4,29.96,East,90,1.1,2.5,80,0.00,,,0.23,WUHU216HW,2013-02-07 20:40:00,
2013-02-07 12:45:00,42.1,36.4,29.96,SE,135,0.4,1.1,80,0.00,,,0.23,WUHU216HW,2013-02-07 20:45:00,
2013-02-07 12:50:00,42.1,36.4,29.96,SE,135,1.1,1.6,80,0.00,,,0.23,WUHU216HW,2013-02-07 20:50:00,
2013-02-07 12:55:00,42.1,36.4,29.96,South,180,0.4,1.6,80,0.00,,,0.23,WUHU216HW,2013-02-07 20:55:00,
2013-02-07 13:00:00,42.2,36.5,29.96,SW,225,1.3,2.0,80,0.00,,,0.23,WUHU216HW,2013-02-07 21:00:00,
2013-02-07 13:05:00,42.2,36.5,29.96,SW,225,1.8,2.0,80,0.00,,,0.23,WUHU216HW,2013-02-07 21:05:00,
2013-02-07 13:10:00,42.2,36.5,29.96,SW,225,0.0,1.8,80,0.00,,,0.23,WUHU216HW,2013-02-07 21:10:00,
2013-02-07 13:15:00,42.2,36.5,29.96,SE,135,1.1,1.8,80,0.00,,,0.23,WUHU216HW,2013-02-07 21:15:00,
2013-02-07 13:20:00,42.2,36.5,29.96,SSE,158,0.2,1.8,80,0.00,,,0.23,WUHU216HW,2013-02-07 21:20:00,
2013-02-07 13:25:00,42.2,36.5,29.96,NE,45,0.4,1.1,80,0.00,,,0.23,WUHU216HW,2013-02-07 21:25:00,
2013-02-07 13:30:00,42.2,36.5,29.96,ENE,68,0.0,1.1,80,0.00,,,0.23,WUHU216HW,2013-02-07 21:30:00,
2013-02-07 13:35:00,42.4,36.7,29.96,ESE,113,1.3,2.2,80,0.00,,,0.23,WUHU216HW,2013-02-07 21:35:00,
2013-02-07 13:40:00,42.2,36.2,29.96,SE,135,2.0,4.7,79,0.00,,,0.23,WUHU216HW,2013-02-07 21:40:00,
2013-02-07 13:45:00,42.2,36.2,29.96,SE,135,1.8,4.7,79,0.00,,,0.23,WUHU216HW,2013-02-07 21:45:00,
2013-02-07 13:50:00,42.2,36.2,29.96,SE,135,2.2,3.4,79,0.00,,,0.23,WUHU216HW,2013-02-07 21:50:00,
2013-02-07 13:55:00,42.1,36.1,29.96,ESE,113,2.5,2.5,79,0.00,,,0.23,WUHU216HW,2013-02-07 21:55:00,
2013-02-07 14:00:00,42.1,36.1,29.96,ESE,113,3.4,3.4,79,0.00,,,0.23,WUHU216HW,2013-02-07 22:00:00,
2013-02-07 14:05:00,41.9,36.2,29.96,SE,135,1.6,3.4,80,0.00,,,0.23,WUHU216HW,2013-02-07 22:05:00,
2013-02-07 14:10:00,41.9,36.2,29.96,SE,135,1.1,2.5,80,0.00,,,0.23,WUHU216HW,2013-02-07 22:10:00,
2013-02-07 14:15:00,41.9,36.2,29.96,ESE,113,0.4,2.5,80,0.00,,,0.23,WUHU216HW,2013-02-07 22:15:00,
2013-02-07 14:20:00,41.9,36.2,29.96,ESE,113,0.4,1.8,80,0.00,,,0.23,WUHU216HW,2013-02-07 22:20:00,
2013-02-07 14:25:00,42.1,36.4,29.96,ESE,113,2.0,2.0,80,0.00,,,0.23,WUHU216HW,2013-02-07 22:25:00,
2013-02-07 14:30:00,42.1,36.4,29.96,SE,135,1.6,3.1,80,0.00,,,0.23,WUHU216HW,2013-02-07 22:30:00,
2013-02-07 14:35:00,42.1,36.4,29.96,ESE,113,2.0,3.1,80,0.00,,,0.23,WUHU216HW,2013-02-07 22:35:00,
2013-02-07 14:40:00,41.9,36.5,29.96,ESE,113,2.5,2.7,81,0.00,,,0.23,WUHU216HW,2013-02-07 22:40:00,
2013-02-07 14:45:00,41.9,36.2,29.96,SE,135,1.1,2.5,80,0.00,,,0.23,WUHU216HW,2013-02-07 22:45:00,
2013-02-07 14:50:00,41.9,36.2,29.97,SE,135,1.8,2.2,80,0.00,,,0.23,WUHU216HW,2013-02-07 22:50:00,
2013-02-07 14:55:00,41.9,36.5,29.97,ESE,113,0.2,2.2,81,0.00,,,0.23,WUHU216HW,2013-02-07 22:55:00,
2013-02-07 15:00:00,42.1,36.7,29.97,SE,135,0.0,1.8,81,0.00,,,0.23,WUHU216HW,2013-02-07 23:00:00,
2013-02-07 15:06:00,42.1,36.7,29.97,SE,135,1.1,1.6,81,0.00,,,0.23,WUHU216HW,2013-02-07 23:06:00,
2013-02-07 15:10:00,42.2,36.8,29.97,SE,135,1.8,2.0,81,0.00,,,0.23,WUHU216HW,2013-02-07 23:10:00,
2013-02-07 15:15:00,42.4,37.0,29.97,SE,135,2.5,2.5,81,0.00,,,0.23,WUHU216HW,2013-02-07 23:15:00,
2013-02-07 15:20:00,42.6,37.2,29.97,SE,135,0.0,2.5,81,0.00,,,0.23,WUHU216HW,2013-02-07 23:20:00,
2013-02-07 15:26:00,42.6,37.2,29.97,SE,135,0.0,2.0,81,0.00,,,0.23,WUHU216HW,2013-02-07 23:26:00,
2013-02-07 15:31:00,42.6,37.2,29.97,SE,135,0.0,1.1,81,0.00,,,0.23,WUHU216HW,2013-02-07 23:31:00,
2013-02-07 15:36:00,42.6,37.2,29.97,SE,135,0.0,0.2,81,0.00,,,0.23,WUHU216HW,2013-02-07 23:36:00,
2013-02-07 15:41:00,42.6,37.2,29.97,SE,135,0.0,0.0,81,0.00,,,0.23,WUHU216HW,2013-02-07 23:41:00,
2013-02-07 15:45:00,42.6,37.5,29.97,SE,135,0.0,0.0,82,0.00,,,0.23,WUHU216HW,2013-02-07 23:45:00,
2013-02-07 15:50:00,42.6,37.5,29.97,SE,135,0.0,0.0,82,0.00,,,0.23,WUHU216HW,2013-02-07 23:50:00,
2013-02-07 15:55:00,42.6,37.5,29.97,SE,135,0.0,0.0,82,0.00,,,0.23,WUHU216HW,2013-02-07 23:55:00,
2013-02-07 16:00:00,42.6,37.5,29.98,SE,135,0.0,0.0,82,0.00,,,0.23,WUHU216HW,2013-02-08 00:00:00,
2013-02-07 16:05:00,42.6,37.5,29.98,SE,135,0.0,0.0,82,0.00,,,0.23,WUHU216HW,2013-02-08 00:05:00,
2013-02-07 16:10:00,42.6,37.5,29.97,SE,135,0.0,0.0,82,0.00,,,0.23,WUHU216HW,2013-02-08 00:10:00,
2013-02-07 16:15:00,42.6,37.5,29.97,SE,135,0.0,0.0,82,0.00,,,0.23,WUHU216HW,2013-02-08 00:15:00,
2013-02-07 16:20:00,42.6,37.5,29.98,SE,135,0.0,0.0,82,0.00,,,0.23,WUHU216HW,2013-02-08 00:20:00,
2013-02-07 16:25:00,42.6,37.8,29.98,SE,135,0.0,0.0,83,0.00,,,0.23,WUHU216HW,2013-02-08 00:25:00,
2013-02-07 16:30:00,42.4,37.6,29.98,SE,135,0.0,0.0,83,0.00,,,0.23,WUHU216HW,2013-02-08 00:30:00,
2013-02-07 16:36:00,42.4,37.6,29.98,SE,135,0.0,0.0,83,0.00,,,0.23,WUHU216HW,2013-02-08 00:36:00,
2013-02-07 16:41:00,42.4,37.6,29.98,SE,135,0.0,0.0,83,0.00,,,0.23,WUHU216HW,2013-02-08 00:41:00,
2013-02-07 16:46:00,42.4,37.6,29.98,SE,135,0.0,0.0,83,0.00,,,0.23,WUHU216HW,2013-02-08 00:46:00,
2013-02-07 16:51:00,42.4,37.6,29.98,SE,135,0.0,0.0,83,0.00,,,0.23,WUHU216HW,2013-02-08 00:51:00,
2013-02-07 16:55:00,42.2,37.4,29.99,SE,135,0.0,0.0,83,0.00,,,0.23,WUHU216HW,2013-02-08 00:55:00,
2013-02-07 17:01:00,42.2,37.1,29.99,SE,135,0.0,0.0,82,0.00,,,0.23,WUHU216HW,2013-02-08 01:01:00,
2013-02-07 17:06:00,42.2,37.4,29.99,SE,135,0.0,0.0,83,0.00,,,0.23,WUHU216HW,2013-02-08 01:06:00,
2013-02-07 17:11:00,42.1,37.3,29.99,SE,135,0.0,0.0,83,0.00,,,0.23,WUHU216HW,2013-02-08 01:11:00,
2013-02-07 17:16:00,42.1,37.3,30.00,SE,135,0.0,0.0,83,0.00,,,0.23,WUHU216HW,2013-02-08 01:16:00,
2013-02-07 17:21:00,41.9,37.1,30.00,SE,135,0.0,0.0,83,0.00,,,0.23,WUHU216HW,2013-02-08 01:21:00,
2013-02-07 17:26:00,41.7,36.9,30.00,SE,135,0.0,0.0,83,0.00,,,0.23,WUHU216HW,2013-02-08 01:26:00,
2013-02-07 17:31:00,41.5,36.7,30.00,SE,135,0.0,0.0,83,0.00,,,0.23,WUHU216HW,2013-02-08 01:31:00,
2013-02-07 17:36:00,41.3,36.5,30.00,SE,135,0.0,0.0,83,0.00,,,0.23,WUHU216HW,2013-02-08 01:36:00,
2013-02-07 17:41:00,41.2,36.4,30.01,SE,135,0.0,0.4,83,0.00,,,0.23,WUHU216HW,2013-02-08 01:41:00,
2013-02-07 17:46:00,41.0,36.2,30.01,SE,135,0.0,0.4,83,0.00,,,0.23,WUHU216HW,2013-02-08 01:46:00,
2013-02-07 17:51:00,40.8,36.0,30.01,SE,135,0.0,0.2,83,0.00,,,0.23,WUHU216HW,2013-02-08 01:51:00,
2013-02-07 17:56:00,40.6,36.1,30.01,NNW,338,0.7,0.7,84,0.00,,,0.23,WUHU216HW,2013-02-08 01:56:00,
2013-02-07 18:01:00,40.4,35.9,30.01,North,0,0.0,1.1,84,0.00,,,0.23,WUHU216HW,2013-02-08 02:01:00,
2013-02-07 18:06:00,40.4,35.9,30.01,North,0,0.0,1.1,84,0.00,,,0.23,WUHU216HW,2013-02-08 02:06:00,
2013-02-07 18:11:00,40.1,35.3,30.01,North,0,0.0,0.2,83,0.00,,,0.23,WUHU216HW,2013-02-08 02:11:00,
2013-02-07 18:16:00,39.9,35.4,30.01,North,0,0.0,0.2,84,0.00,,,0.23,WUHU216HW,2013-02-08 02:16:00,
2013-02-07 18:21:00,39.7,35.2,30.01,North,0,0.0,0.2,84,0.00,,,0.23,WUHU216HW,2013-02-08 02:21:00,
2013-02-07 18:26:00,39.4,35.0,30.01,North,0,0.2,0.4,84,0.00,,,0.23,WUHU216HW,2013-02-08 02:26:00,
2013-02-07 18:31:00,39.2,34.8,30.02,North,0,0.0,0.4,84,0.00,,,0.23,WUHU216HW,2013-02-08 02:31:00,
2013-02-07 18:36:00,38.8,34.4,30.02,North,0,0.0,0.2,84,0.00,,,0.23,WUHU216HW,2013-02-08 02:36:00,
2013-02-07 18:41:00,38.6,34.2,30.02,North,0,0.4,0.4,84,0.00,,,0.23,WUHU216HW,2013-02-08 02:41:00,
2013-02-07 18:46:00,38.3,33.9,30.03,North,0,0.0,0.4,84,0.00,,,0.23,WUHU216HW,2013-02-08 02:46:00,
2013-02-07 18:51:00,38.1,33.7,30.03,North,0,0.0,0.4,84,0.00,,,0.23,WUHU216HW,2013-02-08 02:51:00,
2013-02-07 18:56:00,37.7,33.6,30.03,North,0,0.2,0.4,85,0.00,,,0.23,WUHU216HW,2013-02-08 02:56:00,
2013-02-07 19:01:00,37.7,33.6,30.03,North,0,0.4,0.4,85,0.00,,,0.23,WUHU216HW,2013-02-08 03:01:00,
2013-02-07 19:06:00,37.7,33.6,30.03,North,0,0.0,0.4,85,0.00,,,0.23,WUHU216HW,2013-02-08 03:06:00,
2013-02-07 19:11:00,37.7,33.6,30.03,North,0,0.0,0.4,85,0.00,,,0.23,WUHU216HW,2013-02-08 03:11:00,
2013-02-07 19:16:00,37.4,33.3,30.03,North,0,0.0,0.0,85,0.00,,,0.23,WUHU216HW,2013-02-08 03:16:00,
2013-02-07 19:21:00,37.0,32.9,30.03,North,0,0.0,0.0,85,0.00,,,0.23,WUHU216HW,2013-02-08 03:21:00,
2013-02-07 19:26:00,36.8,33.0,30.04,North,0,0.0,0.0,86,0.00,,,0.23,WUHU216HW,2013-02-08 03:26:00,
2013-02-07 19:31:00,36.7,32.9,30.04,North,0,0.0,0.0,86,0.00,,,0.23,WUHU216HW,2013-02-08 03:31:00,
2013-02-07 19:36:00,36.7,32.9,30.04,North,0,0.0,0.0,86,0.00,,,0.23,WUHU216HW,2013-02-08 03:36:00,
2013-02-07 19:41:00,36.5,32.7,30.04,North,0,0.0,0.2,86,0.00,,,0.23,WUHU216HW,2013-02-08 03:41:00,
2013-02-07 19:46:00,36.1,32.3,30.04,North,0,0.0,0.4,86,0.00,,,0.23,WUHU216HW,2013-02-08 03:46:00,
2013-02-07 19:51:00,35.9,32.1,30.04,North,0,0.0,0.4,86,0.00,,,0.23,WUHU216HW,2013-02-08 03:51:00,
2013-02-07 19:56:00,35.9,32.1,30.04,North,0,0.0,0.2,86,0.00,,,0.23,WUHU216HW,2013-02-08 03:56:00,
2013-02-07 20:01:00,35.8,32.0,30.04,North,0,0.2,0.2,86,0.00,,,0.23,WUHU216HW,2013-02-08 04:01:00,
2013-02-07 20:06:00,35.6,31.8,30.04,North,0,0.4,0.4,86,0.00,,,0.23,WUHU216HW,2013-02-08 04:06:00,
2013-02-07 20:11:00,35.4,31.9,30.04,North,0,0.0,0.4,87,0.00,,,0.23,WUHU216HW,2013-02-08 04:11:00,
2013-02-07 20:16:00,35.4,31.9,30.05,North,0,0.0,0.2,87,0.00,,,0.23,WUHU216HW,2013-02-08 04:16:00,
2013-02-07 20:21:00,35.2,31.7,30.05,North,0,0.0,0.2,87,0.00,,,0.23,WUHU216HW,2013-02-08 04:21:00,
2013-02-07 20:26:00,34.9,31.4,30.05,North,0,0.0,0.2,87,0.00,,,0.23,WUHU216HW,2013-02-08 04:26:00,
2013-02-07 20:31:00,34.9,31.4,30.05,North,0,0.0,0.0,87,0.00,,,0.23,WUHU216HW,2013-02-08 04:31:00,
2013-02-07 20:36:00,34.7,31.2,30.05,North,0,0.0,0.0,87,0.00,,,0.23,WUHU216HW,2013-02-08 04:36:00,
2013-02-07 20:41:00,34.5,31.0,30.05,NNW,338,0.0,0.4,87,0.00,,,0.23,WUHU216HW,2013-02-08 04:41:00,
2013-02-07 20:46:00,34.3,30.8,30.06,NNW,338,0.0,0.4,87,0.00,,,0.23,WUHU216HW,2013-02-08 04:46:00,
2013-02-07 20:51:00,34.1,30.3,30.06,North,0,0.0,0.4,86,0.00,,,0.23,WUHU216HW,2013-02-08 04:51:00,
2013-02-07 20:56:00,34.1,30.3,30.06,NNW,338,0.0,0.2,86,0.00,,,0.23,WUHU216HW,2013-02-08 04:56:00,
2013-02-07 21:00:00,34.1,30.3,30.06,North,0,0.0,0.0,86,0.00,,,0.23,WUHU216HW,2013-02-08 05:00:00,
2013-02-07 21:05:00,34.1,30.6,30.07,NNW,338,0.0,0.0,87,0.00,,,0.23,WUHU216HW,2013-02-08 05:05:00,
2013-02-07 21:10:00,34.1,30.3,30.06,North,0,0.4,0.4,86,0.00,,,0.23,WUHU216HW,2013-02-08 05:10:00,
2013-02-07 21:15:00,33.8,30.0,30.06,North,0,0.0,0.4,86,0.00,,,0.23,WUHU216HW,2013-02-08 05:15:00,
2013-02-07 21:20:00,33.6,30.1,30.07,North,0,0.0,0.4,87,0.00,,,0.23,WUHU216HW,2013-02-08 05:20:00,
2013-02-07 21:25:00,33.6,30.1,30.07,NNW,338,0.4,0.4,87,0.00,,,0.23,WUHU216HW,2013-02-08 05:25:00,
2013-02-07 21:30:00,33.4,29.9,30.07,NNW,338,0.0,0.4,87,0.00,,,0.23,WUHU216HW,2013-02-08 05:30:00,
2013-02-07 21:35:00,33.1,29.6,30.08,NNW,338,0.0,0.4,87,0.00,,,0.23,WUHU216HW,2013-02-08 05:35:00,
2013-02-07 21:40:00,33.1,29.6,30.07,NNW,338,0.0,0.0,87,0.00,,,0.23,WUHU216HW,2013-02-08 05:40:00,
2013-02-07 21:45:00,33.1,29.9,30.07,NNW,338,0.0,0.0,88,0.00,,,0.23,WUHU216HW,2013-02-08 05:45:00,
2013-02-07 21:50:00,33.1,29.9,30.08,NNW,338,0.4,0.4,88,0.00,,,0.23,WUHU216HW,2013-02-08 05:50:00,
2013-02-07 21:55:00,33.1,29.9,30.08,NNW,338,0.0,0.4,88,0.00,,,0.23,WUHU216HW,2013-02-08 05:55:00,
2013-02-07 22:00:00,32.9,29.7,30.08,NNW,338,0.0,0.2,88,0.00,,,0.23,WUHU216HW,2013-02-08 06:00:00,
2013-02-07 22:05:00,32.7,29.5,30.08,NNW,338,0.0,0.0,88,0.00,,,0.23,WUHU216HW,2013-02-08 06:05:00,
2013-02-07 22:10:00,32.7,29.5,30.08,NNW,338,0.0,0.0,88,0.00,,,0.23,WUHU216HW,2013-02-08 06:10:00,
2013-02-07 22:15:00,32.5,29.3,30.08,NNW,338,0.0,0.0,88,0.00,,,0.23,WUHU216HW,2013-02-08 06:15:00,
2013-02-07 22:20:00,32.5,29.3,30.08,North,0,0.0,0.4,88,0.00,,,0.23,WUHU216HW,2013-02-08 06:20:00,
2013-02-07 22:25:00,32.5,29.3,30.08,North,0,0.0,0.4,88,0.00,,,0.23,WUHU216HW,2013-02-08 06:25:00,
2013-02-07 22:30:00,32.7,29.8,30.09,North,0,0.0,0.0,89,0.00,,,0.23,WUHU216HW,2013-02-08 06:30:00,
2013-02-07 22:35:00,32.7,29.8,30.09,North,0,0.0,0.2,89,0.00,,,0.23,WUHU216HW,2013-02-08 06:35:00,
2013-02-07 22:40:00,32.5,29.3,30.09,North,0,0.0,0.2,88,0.00,,,0.23,WUHU216HW,2013-02-08 06:40:00,
2013-02-07 22:45:00,32.3,29.4,30.09,North,0,0.0,0.0,89,0.00,,,0.23,WUHU216HW,2013-02-08 06:45:00,
2013-02-07 22:50:00,32.3,29.4,30.09,North,0,0.4,0.4,89,0.00,,,0.23,WUHU216HW,2013-02-08 06:50:00,
2013-02-07 22:55:00,32.2,29.3,30.09,NW,315,0.4,0.7,89,0.00,,,0.23,WUHU216HW,2013-02-08 06:55:00,
2013-02-07 23:00:00,32.2,29.3,30.09,NW,315,0.0,0.7,89,0.00,,,0.23,WUHU216HW,2013-02-08 07:00:00,
2013-02-07 23:05:00,32.0,29.1,30.10,NW,315,0.0,0.4,89,0.00,,,0.23,WUHU216HW,2013-02-08 07:05:00,
2013-02-07 23:10:00,32.0,29.1,30.10,NW,315,0.0,0.4,89,0.00,,,0.23,WUHU216HW,2013-02-08 07:10:00,
2013-02-07 23:15:00,32.2,29.3,30.10,NW,315,0.4,0.4,89,0.00,,,0.23,WUHU216HW,2013-02-08 07:15:00,
2013-02-07 23:20:00,32.2,29.3,30.10,NW,315,0.0,0.7,89,0.00,,,0.23,WUHU216HW,2013-02-08 07:20:00,
2013-02-07 23:25:00,32.0,29.1,30.10,NW,315,0.0,0.7,89,0.00,,,0.23,WUHU216HW,2013-02-08 07:25:00,
2013-02-07 23:30:00,32.0,29.1,30.11,NNW,338,0.0,0.2,89,0.00,,,0.23,WUHU216HW,2013-02-08 07:30:00,
2013-02-07 23:35:00,32.0,29.1,30.11,NNW,338,0.0,0.2,89,0.00,,,0.23,WUHU216HW,2013-02-08 07:35:00,
2013-02-07 23:40:00,32.0,29.1,30.11,NNW,338,0.0,0.7,89,0.00,,,0.23,WUHU216HW,2013-02-08 07:40:00,
2013-02-07 23:45:00,31.8,28.9,30.11,NNW,338,0.0,0.7,89,0.00,,,0.23,WUHU216HW,2013-02-08 07:45:00,
2013-02-07 23:50:00,31.8,28.9,30.11,NNW,338,0.0,0.0,89,0.00,,,0.23,WUHU216HW,2013-02-08 07:50:00,
2013-02-07 23:55:00,32.0,29.1,30.11,NNW,338,0.0,0.0,89,0.00,,,0.23,WUHU216HW,2013-02-08 07:55:00,